sensor_id;sensor_type;location;lat;lon;timestamp;temperature;humidity
7002;DHT22;3541;53.230;10.518;2023-04-16T00:02:05;8.70;99.90
7002;DHT22;3541;53.230;10.518;2023-04-16T00:04:31;8.70;99.90
7002;DHT22;3541;53.230;10.518;2023-04-16T00:06:58;8.70;99.90
7002;DHT22;3541;53.230;10.518;2023-04-16T00:09:24;8.70;99.90
7002;DHT22;3541;53.230;10.518;2023-04-16T00:11:51;8.70;99.90
7002;DHT22;3541;53.230;10.518;2023-04-16T00:14:19;8.70;99.90
7002;DHT22;3541;53.230;10.518;2023-04-16T00:16:46;8.70;99.90
7002;DHT22;3541;53.230;10.518;2023-04-16T00:19:13;8.70;99.90
7002;DHT22;3541;53.230;10.518;2023-04-16T00:21:39;8.70;99.90
7002;DHT22;3541;53.230;10.518;2023-04-16T00:24:06;8.70;99.90
7002;DHT22;3541;53.230;10.518;2023-04-16T00:26:32;8.70;99.90
7002;DHT22;3541;53.230;10.518;2023-04-16T00:28:59;8.70;99.90
7002;DHT22;3541;53.230;10.518;2023-04-16T00:31:28;8.70;99.90
7002;DHT22;3541;53.230;10.518;2023-04-16T00:33:55;8.60;99.90
7002;DHT22;3541;53.230;10.518;2023-04-16T00:36:22;8.60;99.90
7002;DHT22;3541;53.230;10.518;2023-04-16T00:38:49;8.60;99.90
7002;DHT22;3541;53.230;10.518;2023-04-16T00:41:15;8.60;99.90
7002;DHT22;3541;53.230;10.518;2023-04-16T00:43:42;8.60;99.90
7002;DHT22;3541;53.230;10.518;2023-04-16T00:46:08;8.60;99.90
7002;DHT22;3541;53.230;10.518;2023-04-16T00:48:38;8.60;99.90
7002;DHT22;3541;53.230;10.518;2023-04-16T00:51:06;8.60;99.90
7002;DHT22;3541;53.230;10.518;2023-04-16T00:53:33;8.60;99.90
7002;DHT22;3541;53.230;10.518;2023-04-16T00:56:01;8.60;99.90
7002;DHT22;3541;53.230;10.518;2023-04-16T00:58:28;8.50;99.90
7002;DHT22;3541;53.230;10.518;2023-04-16T01:00:55;8.50;99.90
7002;DHT22;3541;53.230;10.518;2023-04-16T01:03:22;8.50;99.90
7002;DHT22;3541;53.230;10.518;2023-04-16T01:05:51;8.60;99.90
7002;DHT22;3541;53.230;10.518;2023-04-16T01:08:19;8.60;99.90
7002;DHT22;3541;53.230;10.518;2023-04-16T01:10:46;8.60;99.90
7002;DHT22;3541;53.230;10.518;2023-04-16T01:13:13;8.60;99.90
7002;DHT22;3541;53.230;10.518;2023-04-16T01:15:40;8.60;99.90
7002;DHT22;3541;53.230;10.518;2023-04-16T01:18:13;8.60;99.90
7002;DHT22;3541;53.230;10.518;2023-04-16T01:20:41;8.60;99.90
7002;DHT22;3541;53.230;10.518;2023-04-16T01:23:08;8.60;99.90
7002;DHT22;3541;53.230;10.518;2023-04-16T01:25:35;8.60;99.90
7002;DHT22;3541;53.230;10.518;2023-04-16T01:28:02;8.60;99.90
7002;DHT22;3541;53.230;10.518;2023-04-16T01:30:29;8.60;99.90
7002;DHT22;3541;53.230;10.518;2023-04-16T01:32:56;8.60;99.90
7002;DHT22;3541;53.230;10.518;2023-04-16T01:35:23;8.60;99.90
7002;DHT22;3541;53.230;10.518;2023-04-16T01:37:50;8.50;99.90
7002;DHT22;3541;53.230;10.518;2023-04-16T01:40:18;8.50;99.90
7002;DHT22;3541;53.230;10.518;2023-04-16T01:42:44;8.50;99.90
7002;DHT22;3541;53.230;10.518;2023-04-16T01:45:11;8.50;99.90
7002;DHT22;3541;53.230;10.518;2023-04-16T01:47:38;8.50;99.90
7002;DHT22;3541;53.230;10.518;2023-04-16T01:50:06;8.60;99.90
7002;DHT22;3541;53.230;10.518;2023-04-16T01:52:33;8.60;99.90
7002;DHT22;3541;53.230;10.518;2023-04-16T01:55:00;8.50;99.90
7002;DHT22;3541;53.230;10.518;2023-04-16T01:57:27;8.50;99.90
7002;DHT22;3541;53.230;10.518;2023-04-16T01:59:54;8.50;99.90
7002;DHT22;3541;53.230;10.518;2023-04-16T02:02:21;8.60;99.90
7002;DHT22;3541;53.230;10.518;2023-04-16T02:04:52;8.50;99.90
7002;DHT22;3541;53.230;10.518;2023-04-16T02:07:19;8.60;99.90
7002;DHT22;3541;53.230;10.518;2023-04-16T02:09:45;8.50;99.90
7002;DHT22;3541;53.230;10.518;2023-04-16T02:12:13;8.50;99.90
7002;DHT22;3541;53.230;10.518;2023-04-16T02:14:40;8.50;99.90
7002;DHT22;3541;53.230;10.518;2023-04-16T02:17:06;8.50;99.90
7002;DHT22;3541;53.230;10.518;2023-04-16T02:19:33;8.50;99.90
7002;DHT22;3541;53.230;10.518;2023-04-16T02:22:00;8.60;99.90
7002;DHT22;3541;53.230;10.518;2023-04-16T02:24:26;8.60;99.90
7002;DHT22;3541;53.230;10.518;2023-04-16T02:26:53;8.60;99.90
7002;DHT22;3541;53.230;10.518;2023-04-16T02:29:21;8.50;99.90
7002;DHT22;3541;53.230;10.518;2023-04-16T02:31:48;8.50;99.90
7002;DHT22;3541;53.230;10.518;2023-04-16T02:34:15;8.50;99.90
7002;DHT22;3541;53.230;10.518;2023-04-16T02:36:41;8.50;99.90
7002;DHT22;3541;53.230;10.518;2023-04-16T02:39:08;8.50;99.90
7002;DHT22;3541;53.230;10.518;2023-04-16T02:41:34;8.50;99.90
7002;DHT22;3541;53.230;10.518;2023-04-16T02:44:01;8.50;99.90
7002;DHT22;3541;53.230;10.518;2023-04-16T02:46:29;8.50;99.90
7002;DHT22;3541;53.230;10.518;2023-04-16T02:48:55;8.50;99.90
7002;DHT22;3541;53.230;10.518;2023-04-16T02:51:22;8.60;99.90
7002;DHT22;3541;53.230;10.518;2023-04-16T02:53:48;8.50;99.90
7002;DHT22;3541;53.230;10.518;2023-04-16T02:56:15;8.50;99.90
7002;DHT22;3541;53.230;10.518;2023-04-16T02:58:42;8.50;99.90
7002;DHT22;3541;53.230;10.518;2023-04-16T03:01:08;8.40;99.90
7002;DHT22;3541;53.230;10.518;2023-04-16T03:03:36;8.40;99.90
7002;DHT22;3541;53.230;10.518;2023-04-16T03:06:03;8.40;99.90
7002;DHT22;3541;53.230;10.518;2023-04-16T03:08:29;8.50;99.90
7002;DHT22;3541;53.230;10.518;2023-04-16T03:10:56;8.50;99.90
7002;DHT22;3541;53.230;10.518;2023-04-16T03:13:22;8.40;99.90
7002;DHT22;3541;53.230;10.518;2023-04-16T03:15:49;8.40;99.90
7002;DHT22;3541;53.230;10.518;2023-04-16T03:18:15;8.40;99.90
7002;DHT22;3541;53.230;10.518;2023-04-16T03:20:43;8.40;99.90
7002;DHT22;3541;53.230;10.518;2023-04-16T03:23:10;8.40;99.90
7002;DHT22;3541;53.230;10.518;2023-04-16T03:25:36;8.30;99.90
7002;DHT22;3541;53.230;10.518;2023-04-16T03:28:04;8.30;99.90
7002;DHT22;3541;53.230;10.518;2023-04-16T03:30:31;8.30;99.90
7002;DHT22;3541;53.230;10.518;2023-04-16T03:32:58;8.30;99.90
7002;DHT22;3541;53.230;10.518;2023-04-16T03:35:24;8.40;99.90
7002;DHT22;3541;53.230;10.518;2023-04-16T03:37:52;8.30;99.90
7002;DHT22;3541;53.230;10.518;2023-04-16T03:40:19;8.30;99.90
7002;DHT22;3541;53.230;10.518;2023-04-16T03:42:45;8.40;99.90
7002;DHT22;3541;53.230;10.518;2023-04-16T03:45:12;8.30;99.90
7002;DHT22;3541;53.230;10.518;2023-04-16T03:47:39;8.40;99.90
7002;DHT22;3541;53.230;10.518;2023-04-16T03:50:06;8.30;99.90
7002;DHT22;3541;53.230;10.518;2023-04-16T03:52:33;8.30;99.90
7002;DHT22;3541;53.230;10.518;2023-04-16T03:55:00;8.30;99.90
7002;DHT22;3541;53.230;10.518;2023-04-16T03:57:28;8.30;99.90
7002;DHT22;3541;53.230;10.518;2023-04-16T03:59:54;8.30;99.90
7002;DHT22;3541;53.230;10.518;2023-04-16T04:02:21;8.30;99.90
7002;DHT22;3541;53.230;10.518;2023-04-16T04:04:47;8.30;99.90
7002;DHT22;3541;53.230;10.518;2023-04-16T04:07:15;8.30;99.90
7002;DHT22;3541;53.230;10.518;2023-04-16T04:09:41;8.20;99.90
7002;DHT22;3541;53.230;10.518;2023-04-16T04:12:09;8.30;99.90
7002;DHT22;3541;53.230;10.518;2023-04-16T04:14:36;8.30;99.90
7002;DHT22;3541;53.230;10.518;2023-04-16T04:17:04;8.30;99.90
7002;DHT22;3541;53.230;10.518;2023-04-16T04:19:30;8.30;99.90
7002;DHT22;3541;53.230;10.518;2023-04-16T04:21:57;8.30;99.90
7002;DHT22;3541;53.230;10.518;2023-04-16T04:24:23;8.30;99.90
7002;DHT22;3541;53.230;10.518;2023-04-16T04:26:50;8.30;99.90
7002;DHT22;3541;53.230;10.518;2023-04-16T04:29:18;8.30;99.90
7002;DHT22;3541;53.230;10.518;2023-04-16T04:31:45;8.30;99.90
7002;DHT22;3541;53.230;10.518;2023-04-16T04:34:11;8.30;99.90
7002;DHT22;3541;53.230;10.518;2023-04-16T04:36:38;8.30;99.90
7002;DHT22;3541;53.230;10.518;2023-04-16T04:39:05;8.40;99.90
7002;DHT22;3541;53.230;10.518;2023-04-16T04:41:31;8.30;99.90
7002;DHT22;3541;53.230;10.518;2023-04-16T04:43:58;8.30;99.90
7002;DHT22;3541;53.230;10.518;2023-04-16T04:46:25;8.30;99.90
7002;DHT22;3541;53.230;10.518;2023-04-16T04:48:52;8.30;99.90
7002;DHT22;3541;53.230;10.518;2023-04-16T04:51:18;8.40;99.90
7002;DHT22;3541;53.230;10.518;2023-04-16T04:53:45;8.30;99.90
7002;DHT22;3541;53.230;10.518;2023-04-16T04:56:12;8.30;99.90
7002;DHT22;3541;53.230;10.518;2023-04-16T04:58:38;8.20;99.90
7002;DHT22;3541;53.230;10.518;2023-04-16T05:01:05;8.30;99.90
7002;DHT22;3541;53.230;10.518;2023-04-16T05:03:33;8.30;99.90
7002;DHT22;3541;53.230;10.518;2023-04-16T05:06:00;8.30;99.90
7002;DHT22;3541;53.230;10.518;2023-04-16T05:08:26;8.30;99.90
7002;DHT22;3541;53.230;10.518;2023-04-16T05:10:53;8.30;99.90
7002;DHT22;3541;53.230;10.518;2023-04-16T05:13:19;8.30;99.90
7002;DHT22;3541;53.230;10.518;2023-04-16T05:15:46;8.30;99.90
7002;DHT22;3541;53.230;10.518;2023-04-16T05:18:13;8.30;99.90
7002;DHT22;3541;53.230;10.518;2023-04-16T05:20:41;8.30;99.90
7002;DHT22;3541;53.230;10.518;2023-04-16T05:23:07;8.30;99.90
7002;DHT22;3541;53.230;10.518;2023-04-16T05:25:34;8.30;99.90
7002;DHT22;3541;53.230;10.518;2023-04-16T05:28:01;8.30;99.90
7002;DHT22;3541;53.230;10.518;2023-04-16T05:30:27;8.30;99.90
7002;DHT22;3541;53.230;10.518;2023-04-16T05:32:54;8.40;99.90
7002;DHT22;3541;53.230;10.518;2023-04-16T05:35:20;8.30;99.90
7002;DHT22;3541;53.230;10.518;2023-04-16T05:37:48;8.40;99.90
7002;DHT22;3541;53.230;10.518;2023-04-16T05:40:15;8.40;99.90
7002;DHT22;3541;53.230;10.518;2023-04-16T05:42:41;8.40;99.90
7002;DHT22;3541;53.230;10.518;2023-04-16T05:45:09;8.40;99.90
7002;DHT22;3541;53.230;10.518;2023-04-16T05:47:35;8.30;99.90
7002;DHT22;3541;53.230;10.518;2023-04-16T05:50:02;8.30;99.90
7002;DHT22;3541;53.230;10.518;2023-04-16T05:52:29;8.40;99.90
7002;DHT22;3541;53.230;10.518;2023-04-16T05:54:57;8.30;99.90
7002;DHT22;3541;53.230;10.518;2023-04-16T05:57:25;8.30;99.90
7002;DHT22;3541;53.230;10.518;2023-04-16T05:59:52;8.30;99.90
7002;DHT22;3541;53.230;10.518;2023-04-16T06:02:18;8.30;99.90
7002;DHT22;3541;53.230;10.518;2023-04-16T06:04:45;8.40;99.90
7002;DHT22;3541;53.230;10.518;2023-04-16T06:07:12;8.40;99.90
7002;DHT22;3541;53.230;10.518;2023-04-16T06:09:38;8.40;99.90
7002;DHT22;3541;53.230;10.518;2023-04-16T06:12:06;8.40;99.90
7002;DHT22;3541;53.230;10.518;2023-04-16T06:14:33;8.40;99.90
7002;DHT22;3541;53.230;10.518;2023-04-16T06:17:00;8.50;99.90
7002;DHT22;3541;53.230;10.518;2023-04-16T06:19:26;8.40;99.90
7002;DHT22;3541;53.230;10.518;2023-04-16T06:21:53;8.40;99.90
7002;DHT22;3541;53.230;10.518;2023-04-16T06:24:19;8.40;99.90
7002;DHT22;3541;53.230;10.518;2023-04-16T06:26:46;8.40;99.90
7002;DHT22;3541;53.230;10.518;2023-04-16T06:29:14;8.40;99.90
7002;DHT22;3541;53.230;10.518;2023-04-16T06:31:40;8.40;99.90
7002;DHT22;3541;53.230;10.518;2023-04-16T06:34:07;8.40;99.90
7002;DHT22;3541;53.230;10.518;2023-04-16T06:36:34;8.50;99.90
7002;DHT22;3541;53.230;10.518;2023-04-16T06:39:02;8.50;99.90
7002;DHT22;3541;53.230;10.518;2023-04-16T06:41:29;8.50;99.90
7002;DHT22;3541;53.230;10.518;2023-04-16T06:43:55;8.50;99.90
7002;DHT22;3541;53.230;10.518;2023-04-16T06:46:23;8.50;99.90
7002;DHT22;3541;53.230;10.518;2023-04-16T06:48:50;8.50;99.90
7002;DHT22;3541;53.230;10.518;2023-04-16T06:51:17;8.50;99.90
7002;DHT22;3541;53.230;10.518;2023-04-16T06:53:43;8.50;99.90
7002;DHT22;3541;53.230;10.518;2023-04-16T06:56:10;8.50;99.90
7002;DHT22;3541;53.230;10.518;2023-04-16T06:58:36;8.50;99.90
7002;DHT22;3541;53.230;10.518;2023-04-16T07:01:03;8.50;99.90
7002;DHT22;3541;53.230;10.518;2023-04-16T07:03:31;8.50;99.90
7002;DHT22;3541;53.230;10.518;2023-04-16T07:05:58;8.50;99.90
7002;DHT22;3541;53.230;10.518;2023-04-16T07:08:24;8.50;99.90
7002;DHT22;3541;53.230;10.518;2023-04-16T07:10:51;8.50;99.90
7002;DHT22;3541;53.230;10.518;2023-04-16T07:13:18;8.60;99.90
7002;DHT22;3541;53.230;10.518;2023-04-16T07:15:44;8.60;99.90
7002;DHT22;3541;53.230;10.518;2023-04-16T07:18:11;8.60;99.90
7002;DHT22;3541;53.230;10.518;2023-04-16T07:20:39;8.60;99.90
7002;DHT22;3541;53.230;10.518;2023-04-16T07:23:05;8.60;99.90
7002;DHT22;3541;53.230;10.518;2023-04-16T07:25:32;8.60;99.90
7002;DHT22;3541;53.230;10.518;2023-04-16T07:27:58;8.60;99.90
7002;DHT22;3541;53.230;10.518;2023-04-16T07:30:25;8.70;99.90
7002;DHT22;3541;53.230;10.518;2023-04-16T07:32:57;8.70;99.90
7002;DHT22;3541;53.230;10.518;2023-04-16T07:35:23;8.70;99.90
7002;DHT22;3541;53.230;10.518;2023-04-16T07:37:51;8.70;99.90
7002;DHT22;3541;53.230;10.518;2023-04-16T07:40:17;8.80;99.90
7002;DHT22;3541;53.230;10.518;2023-04-16T07:42:44;8.80;99.90
7002;DHT22;3541;53.230;10.518;2023-04-16T07:45:11;8.80;99.90
7002;DHT22;3541;53.230;10.518;2023-04-16T07:47:37;8.90;99.90
7002;DHT22;3541;53.230;10.518;2023-04-16T07:50:05;8.90;99.90
7002;DHT22;3541;53.230;10.518;2023-04-16T07:52:32;8.90;99.90
7002;DHT22;3541;53.230;10.518;2023-04-16T07:55:00;9.00;99.90
7002;DHT22;3541;53.230;10.518;2023-04-16T07:57:26;9.00;99.90
7002;DHT22;3541;53.230;10.518;2023-04-16T07:59:53;9.00;99.90
7002;DHT22;3541;53.230;10.518;2023-04-16T08:02:20;9.10;99.90
7002;DHT22;3541;53.230;10.518;2023-04-16T08:04:46;9.10;99.90
7002;DHT22;3541;53.230;10.518;2023-04-16T08:07:13;9.10;99.90
7002;DHT22;3541;53.230;10.518;2023-04-16T08:09:46;9.10;99.90
7002;DHT22;3541;53.230;10.518;2023-04-16T08:12:15;9.20;99.90
7002;DHT22;3541;53.230;10.518;2023-04-16T08:14:41;9.20;99.90
7002;DHT22;3541;53.230;10.518;2023-04-16T08:17:09;9.30;99.90
7002;DHT22;3541;53.230;10.518;2023-04-16T08:19:35;9.40;99.90
7002;DHT22;3541;53.230;10.518;2023-04-16T08:22:02;9.40;99.90
7002;DHT22;3541;53.230;10.518;2023-04-16T08:24:28;9.50;99.90
7002;DHT22;3541;53.230;10.518;2023-04-16T08:26:55;9.50;99.90
7002;DHT22;3541;53.230;10.518;2023-04-16T08:29:23;9.50;99.90
7002;DHT22;3541;53.230;10.518;2023-04-16T08:31:50;9.50;99.90
7002;DHT22;3541;53.230;10.518;2023-04-16T08:34:17;9.50;99.90
7002;DHT22;3541;53.230;10.518;2023-04-16T08:36:44;9.50;99.90
7002;DHT22;3541;53.230;10.518;2023-04-16T08:39:10;9.50;99.90
7002;DHT22;3541;53.230;10.518;2023-04-16T08:41:40;9.50;99.90
7002;DHT22;3541;53.230;10.518;2023-04-16T08:44:08;9.50;99.90
7002;DHT22;3541;53.230;10.518;2023-04-16T08:46:40;9.60;99.90
7002;DHT22;3541;53.230;10.518;2023-04-16T08:49:07;9.60;99.90
7002;DHT22;3541;53.230;10.518;2023-04-16T08:51:34;9.60;99.90
7002;DHT22;3541;53.230;10.518;2023-04-16T08:54:03;9.60;99.90
7002;DHT22;3541;53.230;10.518;2023-04-16T08:56:30;9.70;99.90
7002;DHT22;3541;53.230;10.518;2023-04-16T08:59:02;9.70;99.90
7002;DHT22;3541;53.230;10.518;2023-04-16T09:01:30;9.70;99.90
7002;DHT22;3541;53.230;10.518;2023-04-16T09:03:59;9.70;99.90
7002;DHT22;3541;53.230;10.518;2023-04-16T09:06:26;9.70;99.90
7002;DHT22;3541;53.230;10.518;2023-04-16T09:08:53;9.70;99.90
7002;DHT22;3541;53.230;10.518;2023-04-16T09:11:22;9.70;99.90
7002;DHT22;3541;53.230;10.518;2023-04-16T09:13:48;9.70;99.90
7002;DHT22;3541;53.230;10.518;2023-04-16T09:16:15;9.70;99.90
7002;DHT22;3541;53.230;10.518;2023-04-16T09:18:42;9.70;99.90
7002;DHT22;3541;53.230;10.518;2023-04-16T09:21:13;9.70;99.90
7002;DHT22;3541;53.230;10.518;2023-04-16T09:23:41;9.70;99.90
7002;DHT22;3541;53.230;10.518;2023-04-16T09:26:07;9.70;99.90
7002;DHT22;3541;53.230;10.518;2023-04-16T09:28:41;9.80;99.90
7002;DHT22;3541;53.230;10.518;2023-04-16T09:31:12;9.80;99.90
7002;DHT22;3541;53.230;10.518;2023-04-16T09:33:39;9.80;99.90
7002;DHT22;3541;53.230;10.518;2023-04-16T09:36:07;9.80;99.90
7002;DHT22;3541;53.230;10.518;2023-04-16T09:38:49;9.80;99.90
7002;DHT22;3541;53.230;10.518;2023-04-16T09:41:16;9.80;99.90
7002;DHT22;3541;53.230;10.518;2023-04-16T09:43:52;9.80;99.90
7002;DHT22;3541;53.230;10.518;2023-04-16T09:46:20;9.90;99.90
7002;DHT22;3541;53.230;10.518;2023-04-16T09:48:46;9.90;99.90
7002;DHT22;3541;53.230;10.518;2023-04-16T09:51:13;9.90;99.90
7002;DHT22;3541;53.230;10.518;2023-04-16T09:53:39;9.90;99.90
7002;DHT22;3541;53.230;10.518;2023-04-16T09:56:07;10.00;99.90
7002;DHT22;3541;53.230;10.518;2023-04-16T09:58:35;10.00;99.90
7002;DHT22;3541;53.230;10.518;2023-04-16T10:01:02;10.10;99.90
7002;DHT22;3541;53.230;10.518;2023-04-16T10:03:31;10.10;99.90
7002;DHT22;3541;53.230;10.518;2023-04-16T10:05:59;10.10;99.90
7002;DHT22;3541;53.230;10.518;2023-04-16T10:08:27;10.20;99.90
7002;DHT22;3541;53.230;10.518;2023-04-16T10:10:54;10.20;99.90
7002;DHT22;3541;53.230;10.518;2023-04-16T10:13:23;10.10;99.90
7002;DHT22;3541;53.230;10.518;2023-04-16T10:15:54;10.00;99.90
7002;DHT22;3541;53.230;10.518;2023-04-16T10:18:21;10.00;99.90
7002;DHT22;3541;53.230;10.518;2023-04-16T10:20:48;10.10;99.90
7002;DHT22;3541;53.230;10.518;2023-04-16T10:23:15;10.10;99.90
7002;DHT22;3541;53.230;10.518;2023-04-16T10:25:41;10.10;99.90
7002;DHT22;3541;53.230;10.518;2023-04-16T10:28:09;10.00;99.90
7002;DHT22;3541;53.230;10.518;2023-04-16T10:30:38;10.00;99.90
7002;DHT22;3541;53.230;10.518;2023-04-16T10:33:07;10.10;99.90
7002;DHT22;3541;53.230;10.518;2023-04-16T10:35:38;10.10;99.90
7002;DHT22;3541;53.230;10.518;2023-04-16T10:38:20;10.10;99.90
7002;DHT22;3541;53.230;10.518;2023-04-16T10:40:46;10.20;99.90
7002;DHT22;3541;53.230;10.518;2023-04-16T10:43:16;10.30;99.90
7002;DHT22;3541;53.230;10.518;2023-04-16T10:45:46;10.30;99.90
7002;DHT22;3541;53.230;10.518;2023-04-16T10:48:13;10.50;99.90
7002;DHT22;3541;53.230;10.518;2023-04-16T10:50:53;10.50;99.90
7002;DHT22;3541;53.230;10.518;2023-04-16T10:53:22;10.50;99.90
7002;DHT22;3541;53.230;10.518;2023-04-16T10:55:57;10.50;99.90
7002;DHT22;3541;53.230;10.518;2023-04-16T10:58:27;10.60;99.90
7002;DHT22;3541;53.230;10.518;2023-04-16T11:00:58;10.60;99.90
7002;DHT22;3541;53.230;10.518;2023-04-16T11:03:29;10.70;99.90
7002;DHT22;3541;53.230;10.518;2023-04-16T11:06:09;10.70;99.90
7002;DHT22;3541;53.230;10.518;2023-04-16T11:08:37;10.80;99.90
7002;DHT22;3541;53.230;10.518;2023-04-16T11:11:04;10.80;99.90
7002;DHT22;3541;53.230;10.518;2023-04-16T11:13:31;10.90;99.90
7002;DHT22;3541;53.230;10.518;2023-04-16T11:16:00;10.90;99.90
7002;DHT22;3541;53.230;10.518;2023-04-16T11:18:27;11.00;99.90
7002;DHT22;3541;53.230;10.518;2023-04-16T11:20:53;11.00;99.90
7002;DHT22;3541;53.230;10.518;2023-04-16T11:23:20;11.00;99.90
7002;DHT22;3541;53.230;10.518;2023-04-16T11:25:46;11.10;99.90
7002;DHT22;3541;53.230;10.518;2023-04-16T11:28:16;11.10;99.90
7002;DHT22;3541;53.230;10.518;2023-04-16T11:30:42;11.20;99.90
7002;DHT22;3541;53.230;10.518;2023-04-16T11:33:11;11.40;99.90
7002;DHT22;3541;53.230;10.518;2023-04-16T11:35:38;11.40;99.90
7002;DHT22;3541;53.230;10.518;2023-04-16T11:38:05;11.50;99.90
7002;DHT22;3541;53.230;10.518;2023-04-16T11:40:33;11.50;99.90
7002;DHT22;3541;53.230;10.518;2023-04-16T11:43:00;11.40;99.90
7002;DHT22;3541;53.230;10.518;2023-04-16T11:45:28;11.40;99.90
7002;DHT22;3541;53.230;10.518;2023-04-16T11:47:54;11.40;99.90
7002;DHT22;3541;53.230;10.518;2023-04-16T11:50:24;11.40;99.90
7002;DHT22;3541;53.230;10.518;2023-04-16T11:52:53;11.50;99.90
7002;DHT22;3541;53.230;10.518;2023-04-16T11:55:21;11.70;99.90
7002;DHT22;3541;53.230;10.518;2023-04-16T11:57:48;11.70;99.90
7002;DHT22;3541;53.230;10.518;2023-04-16T12:00:14;11.70;99.90
7002;DHT22;3541;53.230;10.518;2023-04-16T12:02:42;11.90;99.90
7002;DHT22;3541;53.230;10.518;2023-04-16T12:05:26;11.90;99.90
7002;DHT22;3541;53.230;10.518;2023-04-16T12:07:53;12.10;99.90
7002;DHT22;3541;53.230;10.518;2023-04-16T12:10:19;12.10;99.90
7002;DHT22;3541;53.230;10.518;2023-04-16T12:12:46;12.00;99.90
7002;DHT22;3541;53.230;10.518;2023-04-16T12:15:12;11.90;99.90
7002;DHT22;3541;53.230;10.518;2023-04-16T12:17:39;11.90;99.90
7002;DHT22;3541;53.230;10.518;2023-04-16T12:20:08;11.90;99.90
7002;DHT22;3541;53.230;10.518;2023-04-16T12:22:38;11.70;99.90
7002;DHT22;3541;53.230;10.518;2023-04-16T12:25:06;11.70;99.90
7002;DHT22;3541;53.230;10.518;2023-04-16T12:27:43;11.70;99.90
7002;DHT22;3541;53.230;10.518;2023-04-16T12:30:11;11.70;99.90
7002;DHT22;3541;53.230;10.518;2023-04-16T12:35:05;11.70;99.90
7002;DHT22;3541;53.230;10.518;2023-04-16T12:37:32;11.50;99.90
7002;DHT22;3541;53.230;10.518;2023-04-16T12:40:01;11.40;99.90
7002;DHT22;3541;53.230;10.518;2023-04-16T12:42:28;11.20;99.90
7002;DHT22;3541;53.230;10.518;2023-04-16T12:45:00;11.10;99.90
7002;DHT22;3541;53.230;10.518;2023-04-16T12:47:26;11.00;99.90
7002;DHT22;3541;53.230;10.518;2023-04-16T12:49:53;10.90;99.90
7002;DHT22;3541;53.230;10.518;2023-04-16T12:52:20;10.90;99.90
7002;DHT22;3541;53.230;10.518;2023-04-16T12:54:47;10.90;99.90
7002;DHT22;3541;53.230;10.518;2023-04-16T12:57:15;10.80;99.90
7002;DHT22;3541;53.230;10.518;2023-04-16T12:59:41;10.80;99.90
7002;DHT22;3541;53.230;10.518;2023-04-16T13:02:08;10.90;99.90
7002;DHT22;3541;53.230;10.518;2023-04-16T13:04:35;10.90;99.90
7002;DHT22;3541;53.230;10.518;2023-04-16T13:07:01;10.80;99.90
7002;DHT22;3541;53.230;10.518;2023-04-16T13:09:28;10.70;99.90
7002;DHT22;3541;53.230;10.518;2023-04-16T13:11:54;10.70;99.90
7002;DHT22;3541;53.230;10.518;2023-04-16T13:14:22;10.70;99.90
7002;DHT22;3541;53.230;10.518;2023-04-16T13:16:49;10.80;99.90
7002;DHT22;3541;53.230;10.518;2023-04-16T13:19:15;10.90;99.90
7002;DHT22;3541;53.230;10.518;2023-04-16T13:21:43;11.10;99.90
7002;DHT22;3541;53.230;10.518;2023-04-16T13:24:10;11.10;99.90
7002;DHT22;3541;53.230;10.518;2023-04-16T13:26:36;11.20;99.90
7002;DHT22;3541;53.230;10.518;2023-04-16T13:29:03;11.20;99.90
7002;DHT22;3541;53.230;10.518;2023-04-16T13:31:31;11.20;99.90
7002;DHT22;3541;53.230;10.518;2023-04-16T13:33:57;11.40;99.90
7002;DHT22;3541;53.230;10.518;2023-04-16T13:36:24;11.50;99.90
7002;DHT22;3541;53.230;10.518;2023-04-16T13:38:51;11.80;99.90
7002;DHT22;3541;53.230;10.518;2023-04-16T13:41:18;11.90;99.90
7002;DHT22;3541;53.230;10.518;2023-04-16T13:43:44;12.10;99.90
7002;DHT22;3541;53.230;10.518;2023-04-16T13:46:11;12.00;99.90
7002;DHT22;3541;53.230;10.518;2023-04-16T13:48:39;12.00;99.90
7002;DHT22;3541;53.230;10.518;2023-04-16T13:51:05;12.20;99.90
7002;DHT22;3541;53.230;10.518;2023-04-16T13:53:32;12.50;99.90
7002;DHT22;3541;53.230;10.518;2023-04-16T13:55:59;12.60;99.90
7002;DHT22;3541;53.230;10.518;2023-04-16T13:58:28;12.80;99.90
7002;DHT22;3541;53.230;10.518;2023-04-16T14:00:54;12.70;99.90
7002;DHT22;3541;53.230;10.518;2023-04-16T14:03:21;12.60;99.90
7002;DHT22;3541;53.230;10.518;2023-04-16T14:05:49;12.60;99.90
7002;DHT22;3541;53.230;10.518;2023-04-16T14:08:15;12.60;99.90
7002;DHT22;3541;53.230;10.518;2023-04-16T14:10:42;12.40;99.90
7002;DHT22;3541;53.230;10.518;2023-04-16T14:13:08;12.20;99.90
7002;DHT22;3541;53.230;10.518;2023-04-16T14:15:36;12.10;99.90
7002;DHT22;3541;53.230;10.518;2023-04-16T14:18:03;11.90;99.90
7002;DHT22;3541;53.230;10.518;2023-04-16T14:20:30;11.80;99.90
7002;DHT22;3541;53.230;10.518;2023-04-16T14:22:58;11.80;99.90
7002;DHT22;3541;53.230;10.518;2023-04-16T14:25:24;11.80;99.90
7002;DHT22;3541;53.230;10.518;2023-04-16T14:27:51;11.90;99.90
7002;DHT22;3541;53.230;10.518;2023-04-16T14:30:18;11.90;99.90
7002;DHT22;3541;53.230;10.518;2023-04-16T14:32:45;11.80;99.90
7002;DHT22;3541;53.230;10.518;2023-04-16T14:35:11;11.70;99.90
7002;DHT22;3541;53.230;10.518;2023-04-16T14:37:38;11.70;99.90
7002;DHT22;3541;53.230;10.518;2023-04-16T14:40:07;11.60;99.90
7002;DHT22;3541;53.230;10.518;2023-04-16T14:42:34;11.60;99.90
7002;DHT22;3541;53.230;10.518;2023-04-16T14:45:01;11.60;99.90
7002;DHT22;3541;53.230;10.518;2023-04-16T14:47:30;11.60;99.90
7002;DHT22;3541;53.230;10.518;2023-04-16T14:49:57;11.70;99.90
7002;DHT22;3541;53.230;10.518;2023-04-16T14:52:24;11.60;99.90
7002;DHT22;3541;53.230;10.518;2023-04-16T14:54:51;11.60;99.90
7002;DHT22;3541;53.230;10.518;2023-04-16T14:57:20;11.60;99.90
7002;DHT22;3541;53.230;10.518;2023-04-16T14:59:47;11.60;99.90
7002;DHT22;3541;53.230;10.518;2023-04-16T15:02:14;11.60;99.90
7002;DHT22;3541;53.230;10.518;2023-04-16T15:04:40;11.70;99.90
7002;DHT22;3541;53.230;10.518;2023-04-16T15:07:07;11.70;99.90
7002;DHT22;3541;53.230;10.518;2023-04-16T15:09:33;11.70;99.90
7002;DHT22;3541;53.230;10.518;2023-04-16T15:12:00;11.70;99.90
7002;DHT22;3541;53.230;10.518;2023-04-16T15:14:28;11.70;99.90
7002;DHT22;3541;53.230;10.518;2023-04-16T15:16:55;11.60;99.90
7002;DHT22;3541;53.230;10.518;2023-04-16T15:19:21;11.70;99.90
7002;DHT22;3541;53.230;10.518;2023-04-16T15:21:48;11.70;99.90
7002;DHT22;3541;53.230;10.518;2023-04-16T15:24:14;11.70;99.90
7002;DHT22;3541;53.230;10.518;2023-04-16T15:26:41;11.70;99.90
7002;DHT22;3541;53.230;10.518;2023-04-16T15:29:07;11.60;99.90
7002;DHT22;3541;53.230;10.518;2023-04-16T15:31:35;11.60;99.90
7002;DHT22;3541;53.230;10.518;2023-04-16T15:34:02;11.60;99.90
7002;DHT22;3541;53.230;10.518;2023-04-16T15:36:28;11.50;99.90
7002;DHT22;3541;53.230;10.518;2023-04-16T15:38:56;11.50;99.90
7002;DHT22;3541;53.230;10.518;2023-04-16T15:41:22;11.50;99.90
7002;DHT22;3541;53.230;10.518;2023-04-16T15:43:49;11.50;99.90
7002;DHT22;3541;53.230;10.518;2023-04-16T15:46:16;11.50;99.90
7002;DHT22;3541;53.230;10.518;2023-04-16T15:48:43;11.50;99.90
7002;DHT22;3541;53.230;10.518;2023-04-16T15:51:10;11.50;99.90
7002;DHT22;3541;53.230;10.518;2023-04-16T15:53:37;11.50;99.90
7002;DHT22;3541;53.230;10.518;2023-04-16T15:56:04;11.50;99.90
7002;DHT22;3541;53.230;10.518;2023-04-16T15:58:30;11.40;99.90